Time,TemperatureF,DewpointF,PressureIn,WindDirection,WindDirectionDegrees,WindSpeedMPH,WindSpeedGustMPH,Humidity,HourlyPrecipIn,Conditions,Clouds,dailyrainin,SoftwareType,DateUTC
2013-02-08 00:00:00,35.4,27.3,30.00,East,90,0.0,0.0,72,0.00,CLR,CLR,0.00,WeatherDisplay:10.37,2013-02-08 05:00:00,
2013-02-08 00:01:00,35.4,27.3,30.00,NE,45,0.0,0.0,72,0.00,CLR,CLR,0.00,WeatherDisplay:10.37,2013-02-08 05:01:00,
2013-02-08 00:06:00,35.4,27.3,29.99,NE,45,0.0,0.0,72,0.00,CLR,CLR,0.00,WeatherDisplay:10.37,2013-02-08 05:06:00,
2013-02-08 00:12:00,35.4,27.3,29.99,North,0,0.0,0.0,72,0.00,CLR,CLR,0.00,WeatherDisplay:10.37,2013-02-08 05:12:00,
2013-02-08 00:17:00,35.4,27.3,29.98,ENE,68,0.0,0.0,72,0.00,CLR,CLR,0.00,WeatherDisplay:10.37,2013-02-08 05:17:00,
2013-02-08 00:22:00,35.4,27.3,29.98,ESE,112,0.0,0.0,72,0.00,CLR,CLR,0.00,WeatherDisplay:10.37,2013-02-08 05:22:00,
2013-02-08 00:28:00,35.4,27.6,29.98,ENE,68,0.0,0.0,73,0.00,CLR,CLR,0.00,WeatherDisplay:10.37,2013-02-08 05:28:00,
2013-02-08 00:33:00,35.4,27.6,29.98,ENE,68,0.0,0.0,73,0.00,CLR,CLR,0.00,WeatherDisplay:10.37,2013-02-08 05:33:00,
2013-02-08 00:38:00,35.4,27.6,29.97,NNE,22,0.0,0.0,73,0.00,CLR,CLR,0.00,WeatherDisplay:10.37,2013-02-08 05:38:00,
2013-02-08 00:43:00,35.4,27.6,29.97,North,0,0.0,0.0,73,0.00,CLR,CLR,0.00,WeatherDisplay:10.37,2013-02-08 05:43:00,
2013-02-08 00:49:00,35.4,27.6,29.96,North,0,1.2,0.0,73,0.00,CLR,CLR,0.00,WeatherDisplay:10.37,2013-02-08 05:49:00,
2013-02-08 00:54:00,35.4,28.0,29.96,North,0,0.0,0.0,74,0.00,CLR,CLR,0.00,WeatherDisplay:10.37,2013-02-08 05:54:00,
2013-02-08 00:59:00,35.4,28.0,29.95,NNW,338,0.0,0.0,74,0.00,CLR,CLR,0.00,WeatherDisplay:10.37,2013-02-08 05:59:00,
2013-02-08 01:04:00,35.4,28.0,29.95,SE,135,0.0,0.0,74,0.00,CLR,CLR,0.00,WeatherDisplay:10.37,2013-02-08 06:04:00,
2013-02-08 01:09:00,35.2,27.8,29.95,NNW,338,0.0,0.7,74,0.00,CLR,CLR,0.00,WeatherDisplay:10.37,2013-02-08 06:09:00,
2013-02-08 01:15:00,35.2,27.8,29.95,SE,135,2.3,0.0,74,0.00,CLR,CLR,0.00,WeatherDisplay:10.37,2013-02-08 06:15:00,
2013-02-08 01:20:00,35.2,27.8,29.94,North,0,1.6,0.0,74,0.00,CLR,CLR,0.00,WeatherDisplay:10.37,2013-02-08 06:20:00,
2013-02-08 01:25:00,35.2,27.8,29.94,NNE,22,0.0,0.0,74,0.00,CLR,CLR,0.00,WeatherDisplay:10.37,2013-02-08 06:25:00,
2013-02-08 01:30:00,35.2,27.8,29.94,NE,45,0.0,0.0,74,0.00,CLR,CLR,0.00,WeatherDisplay:10.37,2013-02-08 06:30:00,
2013-02-08 01:35:00,35.2,27.8,29.93,NNE,22,0.9,0.9,74,0.00,CLR,CLR,0.00,WeatherDisplay:10.37,2013-02-08 06:35:00,
2013-02-08 01:41:00,35.2,28.1,29.93,North,0,0.0,0.0,75,0.00,CLR,CLR,0.00,WeatherDisplay:10.37,2013-02-08 06:41:00,
2013-02-08 01:46:00,35.2,28.1,29.93,NNE,22,0.0,0.0,75,0.00,CLR,CLR,0.00,WeatherDisplay:10.37,2013-02-08 06:46:00,
2013-02-08 01:51:00,35.2,28.1,29.93,NNE,22,0.0,0.0,75,0.00,CLR,CLR,0.00,WeatherDisplay:10.37,2013-02-08 06:51:00,
2013-02-08 01:56:00,35.2,28.1,29.93,NNE,22,3.5,3.5,75,0.00,CLR,CLR,0.00,WeatherDisplay:10.37,2013-02-08 06:56:00,
2013-02-08 02:01:00,35.2,28.1,29.93,NNE,22,0.0,0.0,75,0.00,CLR,CLR,0.00,WeatherDisplay:10.37,2013-02-08 07:01:00,
2013-02-08 02:07:00,35.2,28.1,29.93,ENE,68,0.0,0.0,75,0.00,CLR,CLR,0.00,WeatherDisplay:10.37,2013-02-08 07:07:00,
2013-02-08 02:12:00,35.2,28.1,29.92,East,90,0.0,0.0,75,0.00,CLR,CLR,0.00,WeatherDisplay:10.37,2013-02-08 07:12:00,
2013-02-08 02:17:00,35.2,28.1,29.92,ESE,112,0.0,0.0,75,0.00,CLR,CLR,0.00,WeatherDisplay:10.37,2013-02-08 07:17:00,
2013-02-08 02:22:00,35.2,28.1,29.92,North,0,1.2,0.0,75,0.00,CLR,CLR,0.00,WeatherDisplay:10.37,2013-02-08 07:22:00,
2013-02-08 02:27:00,35.2,28.1,29.92,NNE,22,0.0,0.0,75,0.00,CLR,CLR,0.00,WeatherDisplay:10.37,2013-02-08 07:27:00,
2013-02-08 02:33:00,35.2,28.1,29.91,ESE,112,2.3,0.0,75,0.00,CLR,CLR,0.00,WeatherDisplay:10.37,2013-02-08 07:33:00,
2013-02-08 02:38:00,35.2,28.1,29.91,ESE,112,0.0,0.0,75,0.00,CLR,CLR,0.00,WeatherDisplay:10.37,2013-02-08 07:38:00,
2013-02-08 02:43:00,35.2,28.1,29.91,ESE,112,0.0,0.0,75,0.00,CLR,CLR,0.00,WeatherDisplay:10.37,2013-02-08 07:43:00,
2013-02-08 02:48:00,35.2,28.1,29.91,ESE,112,0.0,0.0,75,0.00,CLR,CLR,0.00,WeatherDisplay:10.37,2013-02-08 07:48:00,
2013-02-08 02:53:00,35.2,28.1,29.91,ESE,112,0.0,0.0,75,0.00,CLR,CLR,0.00,WeatherDisplay:10.37,2013-02-08 07:53:00,
2013-02-08 02:59:00,35.2,28.1,29.90,NNE,22,0.0,0.0,75,0.00,CLR,CLR,0.00,WeatherDisplay:10.37,2013-02-08 07:59:00,
2013-02-08 03:04:00,35.2,28.1,29.90,ENE,68,0.0,0.0,75,0.00,CLR,CLR,0.00,WeatherDisplay:10.37,2013-02-08 08:04:00,
2013-02-08 03:09:00,35.2,28.1,29.90,NNE,22,0.0,0.0,75,0.00,CLR,CLR,0.00,WeatherDisplay:10.37,2013-02-08 08:09:00,
2013-02-08 03:14:00,35.2,28.1,29.90,NE,45,0.0,0.0,75,0.00,CLR,CLR,0.00,WeatherDisplay:10.37,2013-02-08 08:14:00,
2013-02-08 03:19:00,35.2,28.1,29.89,North,0,0.0,0.0,75,0.00,CLR,CLR,0.00,WeatherDisplay:10.37,2013-02-08 08:19:00,
2013-02-08 03:25:00,35.2,28.1,29.89,NNE,22,0.0,0.0,75,0.00,CLR,CLR,0.00,WeatherDisplay:10.37,2013-02-08 08:25:00,
2013-02-08 03:30:00,35.2,28.1,29.89,North,0,0.0,0.0,75,0.00,CLR,CLR,0.00,WeatherDisplay:10.37,2013-02-08 08:30:00,
2013-02-08 03:35:00,35.2,28.1,29.89,North,0,0.0,0.0,75,0.00,CLR,CLR,0.00,WeatherDisplay:10.37,2013-02-08 08:35:00,
2013-02-08 03:40:00,35.2,28.1,29.88,North,0,0.0,0.0,75,0.00,CLR,CLR,0.00,WeatherDisplay:10.37,2013-02-08 08:40:00,
2013-02-08 03:46:00,35.1,28.3,29.88,North,0,0.0,0.0,76,0.00,CLR,CLR,0.00,WeatherDisplay:10.37,2013-02-08 08:46:00,
2013-02-08 03:51:00,34.9,28.1,29.88,North,0,0.0,0.0,76,0.00,CLR,CLR,0.00,WeatherDisplay:10.37,2013-02-08 08:51:00,
2013-02-08 03:56:00,34.9,28.1,29.88,North,0,0.0,0.0,76,0.00,CLR,CLR,0.00,WeatherDisplay:10.37,2013-02-08 08:56:00,
2013-02-08 04:01:00,34.9,28.4,29.88,North,0,0.0,0.0,77,0.00,CLR,CLR,0.00,WeatherDisplay:10.37,2013-02-08 09:01:00,
2013-02-08 04:06:00,34.9,28.4,29.88,North,0,0.0,0.0,77,0.00,CLR,CLR,0.00,WeatherDisplay:10.37,2013-02-08 09:06:00,
2013-02-08 04:12:00,34.9,28.4,29.87,North,0,0.0,0.0,77,0.00,CLR,CLR,0.00,WeatherDisplay:10.37,2013-02-08 09:12:00,
2013-02-08 04:17:00,34.9,28.4,29.87,North,0,0.0,0.0,77,0.00,CLR,CLR,0.00,WeatherDisplay:10.37,2013-02-08 09:17:00,
2013-02-08 04:22:00,34.7,28.2,29.86,North,0,0.0,0.0,77,0.00,CLR,CLR,0.00,WeatherDisplay:10.37,2013-02-08 09:22:00,
2013-02-08 04:27:00,34.7,28.2,29.86,NW,315,0.0,0.0,77,0.00,CLR,CLR,0.00,WeatherDisplay:10.37,2013-02-08 09:27:00,
2013-02-08 04:33:00,34.5,28.1,29.86,WNW,292,0.0,0.0,77,0.00,CLR,CLR,0.00,WeatherDisplay:10.37,2013-02-08 09:33:00,
2013-02-08 04:38:00,34.5,28.1,29.86,WNW,292,0.0,0.0,77,0.00,CLR,CLR,0.00,WeatherDisplay:10.37,2013-02-08 09:38:00,
2013-02-08 04:43:00,34.5,28.1,29.86,WNW,292,0.0,0.0,77,0.00,CLR,CLR,0.00,WeatherDisplay:10.37,2013-02-08 09:43:00,
2013-02-08 04:48:00,34.5,28.4,29.86,WNW,292,0.0,0.0,78,0.00,CLR,CLR,0.00,WeatherDisplay:10.37,2013-02-08 09:48:00,
2013-02-08 04:54:00,34.5,28.4,29.86,WNW,292,0.0,0.0,78,0.00,CLR,CLR,0.00,WeatherDisplay:10.37,2013-02-08 09:54:00,
2013-02-08 04:59:00,34.7,28.5,29.86,WNW,292,0.0,0.0,78,0.00,CLR,CLR,0.00,WeatherDisplay:10.37,2013-02-08 09:59:00,
2013-02-08 05:04:00,34.5,28.4,29.85,WNW,292,0.0,0.0,78,0.00,CLR,CLR,0.00,WeatherDisplay:10.37,2013-02-08 10:04:00,
2013-02-08 05:09:00,34.5,28.4,29.85,WNW,292,0.0,0.0,78,0.00,CLR,CLR,0.00,WeatherDisplay:10.37,2013-02-08 10:09:00,
2013-02-08 05:15:00,34.3,28.2,29.85,WNW,292,0.0,0.0,78,0.00,CLR,CLR,0.00,WeatherDisplay:10.37,2013-02-08 10:15:00,
2013-02-08 05:20:00,34.3,28.2,29.85,West,270,0.0,0.0,78,0.00,CLR,CLR,0.00,WeatherDisplay:10.37,2013-02-08 10:20:00,
2013-02-08 05:25:00,34.3,28.5,29.85,West,270,0.0,0.0,79,0.00,CLR,CLR,0.00,WeatherDisplay:10.37,2013-02-08 10:25:00,
2013-02-08 05:30:00,34.3,28.5,29.85,West,270,0.0,0.0,79,0.00,CLR,CLR,0.00,WeatherDisplay:10.37,2013-02-08 10:30:00,
2013-02-08 05:36:00,34.3,28.5,29.85,West,270,0.0,0.0,79,0.00,CLR,CLR,0.00,WeatherDisplay:10.37,2013-02-08 10:36:00,
2013-02-08 05:41:00,34.3,28.5,29.85,West,270,0.0,0.0,79,0.00,CLR,CLR,0.00,WeatherDisplay:10.37,2013-02-08 10:41:00,
2013-02-08 05:46:00,34.3,28.5,29.85,West,270,0.0,0.0,79,0.00,CLR,CLR,0.00,WeatherDisplay:10.37,2013-02-08 10:46:00,
2013-02-08 05:51:00,34.3,28.8,29.84,West,270,1.2,0.0,80,0.00,CLR,CLR,0.00,WeatherDisplay:10.37,2013-02-08 10:51:00,
2013-02-08 05:57:00,34.2,28.6,29.84,West,270,0.0,0.0,80,0.00,CLR,CLR,0.00,WeatherDisplay:10.37,2013-02-08 10:57:00,
2013-02-08 06:02:00,34.2,28.6,29.84,West,270,0.0,0.0,80,0.00,CLR,CLR,0.00,WeatherDisplay:10.37,2013-02-08 11:02:00,
2013-02-08 06:07:00,34.2,28.6,29.84,West,270,0.0,0.0,80,0.00,CLR,CLR,0.00,WeatherDisplay:10.37,2013-02-08 11:07:00,
2013-02-08 06:13:00,34.2,28.6,29.83,West,270,0.0,0.0,80,0.00,CLR,CLR,0.00,WeatherDisplay:10.37,2013-02-08 11:13:00,
2013-02-08 06:18:00,34.2,28.6,29.83,WNW,292,0.0,0.0,80,0.00,CLR,CLR,0.00,WeatherDisplay:10.37,2013-02-08 11:18:00,
2013-02-08 06:23:00,34.2,28.6,29.83,NW,315,0.0,0.0,80,0.00,CLR,CLR,0.00,WeatherDisplay:10.37,2013-02-08 11:23:00,
2013-02-08 06:28:00,34.2,28.6,29.82,NW,315,0.0,0.0,80,0.00,CLR,CLR,0.00,WeatherDisplay:10.37,2013-02-08 11:28:00,
2013-02-08 06:34:00,34.3,28.8,29.82,NW,315,0.0,0.0,80,0.00,CLR,CLR,0.00,WeatherDisplay:10.37,2013-02-08 11:34:00,
2013-02-08 06:39:00,34.2,28.6,29.82,NW,315,0.0,0.0,80,0.00,CLR,CLR,0.00,WeatherDisplay:10.37,2013-02-08 11:39:00,
2013-02-08 06:44:00,34.3,28.8,29.82,NW,315,0.0,0.0,80,0.00,CLR,CLR,0.00,WeatherDisplay:10.37,2013-02-08 11:44:00,
2013-02-08 06:50:00,34.2,28.6,29.82,NW,315,0.0,0.0,80,0.00,CLR,CLR,0.00,WeatherDisplay:10.37,2013-02-08 11:50:00,
2013-02-08 06:55:00,34.2,28.6,29.82,NW,315,0.0,0.0,80,0.00,CLR,CLR,0.00,WeatherDisplay:10.37,2013-02-08 11:55:00,
2013-02-08 07:00:00,34.2,28.6,29.81,NW,315,0.0,0.0,80,0.00,CLR,CLR,0.00,WeatherDisplay:10.37,2013-02-08 12:00:00,
2013-02-08 07:05:00,34.2,28.6,29.81,NW,315,0.0,0.0,80,0.00,CLR,CLR,0.00,WeatherDisplay:10.37,2013-02-08 12:05:00,
2013-02-08 07:11:00,34.2,28.6,29.81,WNW,292,0.0,0.0,80,0.00,CLR,CLR,0.00,WeatherDisplay:10.37,2013-02-08 12:11:00,
2013-02-08 07:16:00,34.2,28.6,29.80,WNW,292,1.2,0.0,80,0.00,CLR,CLR,0.00,WeatherDisplay:10.37,2013-02-08 12:16:00,
2013-02-08 07:21:00,34.2,28.6,29.80,WNW,292,0.0,0.0,80,0.00,CLR,CLR,0.00,WeatherDisplay:10.37,2013-02-08 12:21:00,
2013-02-08 07:26:00,34.2,28.6,29.80,West,270,0.0,0.0,80,0.00,CLR,CLR,0.00,WeatherDisplay:10.37,2013-02-08 12:26:00,
2013-02-08 07:31:00,34.2,28.6,29.80,WNW,292,0.0,0.0,80,0.00,CLR,CLR,0.00,WeatherDisplay:10.37,2013-02-08 12:31:00,
2013-02-08 07:37:00,34.2,28.6,29.80,WNW,292,0.0,0.0,80,0.00,CLR,CLR,0.00,WeatherDisplay:10.37,2013-02-08 12:37:00,
2013-02-08 07:42:00,34.2,28.6,29.80,West,270,0.0,0.0,80,0.00,CLR,CLR,0.00,WeatherDisplay:10.37,2013-02-08 12:42:00,
2013-02-08 07:47:00,34.2,28.6,29.79,WNW,292,0.0,0.0,80,0.00,CLR,CLR,0.00,WeatherDisplay:10.37,2013-02-08 12:47:00,
2013-02-08 07:52:00,34.2,28.6,29.79,West,270,0.0,0.0,80,0.00,CLR,CLR,0.00,WeatherDisplay:10.37,2013-02-08 12:52:00,
2013-02-08 07:58:00,34.2,28.3,29.79,NW,315,0.0,0.0,79,0.00,CLR,CLR,0.00,WeatherDisplay:10.37,2013-02-08 12:58:00,
2013-02-08 08:03:00,34.2,28.3,29.79,NW,315,0.0,0.0,79,0.00,CLR,CLR,0.00,WeatherDisplay:10.37,2013-02-08 13:03:00,
2013-02-08 08:08:00,34.2,28.3,29.79,WNW,292,0.0,0.0,79,0.00,CLR,CLR,0.00,WeatherDisplay:10.37,2013-02-08 13:08:00,
2013-02-08 08:13:00,34.3,28.5,29.79,WNW,292,1.6,1.6,79,0.00,CLR,CLR,0.00,WeatherDisplay:10.37,2013-02-08 13:13:00,
2013-02-08 08:18:00,34.3,28.5,29.79,West,270,0.0,0.2,79,0.00,CLR,CLR,0.00,WeatherDisplay:10.37,2013-02-08 13:18:00,
2013-02-08 08:24:00,34.3,28.5,29.78,WNW,292,2.3,2.3,79,0.00,CLR,CLR,0.00,WeatherDisplay:10.37,2013-02-08 13:24:00,
2013-02-08 08:29:00,34.2,28.3,29.78,WNW,292,0.0,0.0,79,0.00,CLR,CLR,0.00,WeatherDisplay:10.37,2013-02-08 13:29:00,
2013-02-08 08:34:00,34.3,28.5,29.78,NW,315,0.0,0.0,79,0.00,CLR,CLR,0.00,WeatherDisplay:10.37,2013-02-08 13:34:00,
2013-02-08 08:39:00,34.3,28.5,29.77,NW,315,0.0,0.0,79,0.00,CLR,CLR,0.00,WeatherDisplay:10.37,2013-02-08 13:39:00,
2013-02-08 08:45:00,34.3,28.2,29.77,WNW,292,0.0,0.0,78,0.00,CLR,CLR,0.00,WeatherDisplay:10.37,2013-02-08 13:45:00,
2013-02-08 08:50:00,34.3,28.2,29.77,NW,315,2.3,2.3,78,0.00,CLR,CLR,0.00,WeatherDisplay:10.37,2013-02-08 13:50:00,
2013-02-08 08:55:00,34.3,28.2,29.77,NNW,338,3.1,3.1,78,0.00,CLR,CLR,0.00,WeatherDisplay:10.37,2013-02-08 13:55:00,
2013-02-08 09:00:00,34.3,28.2,29.76,WNW,292,3.5,3.5,78,0.00,CLR,CLR,0.00,WeatherDisplay:10.37,2013-02-08 14:00:00,
2013-02-08 09:05:00,34.3,28.2,29.76,WNW,292,0.0,0.0,78,0.00,CLR,CLR,0.00,WeatherDisplay:10.37,2013-02-08 14:05:00,
2013-02-08 09:10:00,34.3,28.2,29.76,West,270,2.3,2.3,78,0.00,CLR,CLR,0.00,WeatherDisplay:10.37,2013-02-08 14:10:00,
2013-02-08 09:16:00,34.3,28.2,29.75,WNW,292,5.8,5.8,78,0.00,CLR,CLR,0.00,WeatherDisplay:10.37,2013-02-08 14:16:00,
2013-02-08 09:21:00,34.5,28.4,29.75,NW,315,3.5,3.5,78,0.00,CLR,CLR,0.00,WeatherDisplay:10.37,2013-02-08 14:21:00,
2013-02-08 09:26:00,34.5,28.4,29.75,WNW,292,0.0,0.0,78,0.00,CLR,CLR,0.00,WeatherDisplay:10.37,2013-02-08 14:26:00,
2013-02-08 09:31:00,34.7,28.5,29.75,WNW,292,2.7,2.7,78,0.00,CLR,CLR,0.00,WeatherDisplay:10.37,2013-02-08 14:31:00,
2013-02-08 09:37:00,34.7,28.2,29.75,West,270,4.6,4.6,77,0.00,CLR,CLR,0.00,WeatherDisplay:10.37,2013-02-08 14:37:00,
2013-02-08 09:42:00,34.7,28.2,29.75,NW,315,5.8,5.8,77,0.00,CLR,CLR,0.00,WeatherDisplay:10.37,2013-02-08 14:42:00,
2013-02-08 09:47:00,34.5,28.1,29.75,North,0,4.6,4.6,77,0.00,CLR,CLR,0.00,WeatherDisplay:10.37,2013-02-08 14:47:00,
2013-02-08 09:52:00,34.3,27.9,29.74,NW,315,4.6,4.6,77,0.00,CLR,CLR,0.00,WeatherDisplay:10.37,2013-02-08 14:52:00,
2013-02-08 09:57:00,34.3,28.2,29.74,West,270,2.3,2.3,78,0.00,CLR,CLR,0.00,WeatherDisplay:10.37,2013-02-08 14:57:00,
2013-02-08 10:03:00,34.3,28.2,29.74,NW,315,4.6,4.6,78,0.00,CLR,CLR,0.00,WeatherDisplay:10.37,2013-02-08 15:03:00,
2013-02-08 10:08:00,34.7,28.5,29.74,West,270,3.5,3.5,78,0.00,CLR,CLR,0.00,WeatherDisplay:10.37,2013-02-08 15:08:00,
2013-02-08 10:13:00,34.9,29.0,29.73,WNW,292,4.5,4.5,79,0.00,CLR,CLR,0.00,WeatherDisplay:10.37,2013-02-08 15:13:00,
2013-02-08 10:18:00,35.2,29.1,29.74,NW,315,3.8,3.8,78,0.00,CLR,CLR,0.00,WeatherDisplay:10.37,2013-02-08 15:18:00,
2013-02-08 10:23:00,35.2,29.4,29.72,NW,315,2.3,2.3,79,0.00,CLR,CLR,0.00,WeatherDisplay:10.37,2013-02-08 15:23:00,
2013-02-08 10:29:00,35.4,29.2,29.72,NNW,338,4.6,4.6,78,0.00,CLR,CLR,0.00,WeatherDisplay:10.37,2013-02-08 15:29:00,
2013-02-08 10:34:00,35.8,29.6,29.71,NNW,338,3.5,3.5,78,0.00,CLR,CLR,0.00,WeatherDisplay:10.37,2013-02-08 15:34:00,
2013-02-08 10:39:00,36.3,30.1,29.71,NW,315,6.9,6.9,78,0.00,CLR,CLR,0.00,WeatherDisplay:10.37,2013-02-08 15:39:00,
2013-02-08 10:44:00,36.5,30.3,29.71,NW,315,3.5,3.5,78,0.00,CLR,CLR,0.00,WeatherDisplay:10.37,2013-02-08 15:44:00,
2013-02-08 10:50:00,36.9,30.6,29.71,WNW,292,4.7,4.7,78,0.00,CLR,CLR,0.00,WeatherDisplay:10.37,2013-02-08 15:50:00,
2013-02-08 10:55:00,36.9,30.3,29.70,WNW,292,5.8,5.8,77,0.00,CLR,CLR,0.00,WeatherDisplay:10.37,2013-02-08 15:55:00,
2013-02-08 11:00:00,37.2,30.7,29.70,NW,315,3.5,3.5,77,0.00,CLR,CLR,0.00,WeatherDisplay:10.37,2013-02-08 16:00:00,
2013-02-08 11:05:00,37.2,30.7,29.70,NW,315,3.5,3.5,77,0.00,CLR,CLR,0.00,WeatherDisplay:10.37,2013-02-08 16:05:00,
2013-02-08 11:11:00,37.4,30.8,29.70,NW,315,4.6,4.6,77,0.00,CLR,CLR,0.00,WeatherDisplay:10.37,2013-02-08 16:11:00,
2013-02-08 11:16:00,37.6,31.0,29.70,WNW,292,6.9,6.9,77,0.00,CLR,CLR,0.00,WeatherDisplay:10.37,2013-02-08 16:16:00,
2013-02-08 11:21:00,37.6,31.0,29.69,NNW,338,6.7,6.7,77,0.00,CLR,CLR,0.00,WeatherDisplay:10.37,2013-02-08 16:21:00,
2013-02-08 11:26:00,37.6,31.0,29.69,North,0,4.9,4.9,77,0.00,CLR,CLR,0.00,WeatherDisplay:10.37,2013-02-08 16:26:00,
2013-02-08 11:31:00,37.6,31.0,29.69,NW,315,4.6,4.6,77,0.00,CLR,CLR,0.00,WeatherDisplay:10.37,2013-02-08 16:31:00,
2013-02-08 11:37:00,37.6,31.0,29.68,NW,315,3.5,3.5,77,0.00,CLR,CLR,0.00,WeatherDisplay:10.37,2013-02-08 16:37:00,
2013-02-08 11:42:00,37.6,31.0,29.68,NW,315,2.9,2.9,77,0.00,CLR,CLR,0.00,WeatherDisplay:10.37,2013-02-08 16:42:00,
2013-02-08 11:47:00,37.4,30.8,29.68,NNW,338,4.6,4.6,77,0.00,CLR,CLR,0.00,WeatherDisplay:10.37,2013-02-08 16:47:00,
2013-02-08 11:52:00,37.4,30.8,29.67,NW,315,5.4,5.4,77,0.00,CLR,CLR,0.00,WeatherDisplay:10.37,2013-02-08 16:52:00,
2013-02-08 11:58:00,37.6,31.0,29.66,WNW,292,3.5,3.5,77,0.00,CLR,CLR,0.00,WeatherDisplay:10.37,2013-02-08 16:58:00,
2013-02-08 12:03:00,37.8,31.2,29.65,NNW,338,3.5,3.5,77,0.00,CLR,CLR,0.00,WeatherDisplay:10.37,2013-02-08 17:03:00,
2013-02-08 12:08:00,37.9,31.4,29.64,NNW,338,7.8,7.8,77,0.00,CLR,CLR,0.00,WeatherDisplay:10.37,2013-02-08 17:08:00,
2013-02-08 12:13:00,38.5,31.9,29.64,WNW,292,5.8,5.8,77,0.00,CLR,CLR,0.00,WeatherDisplay:10.37,2013-02-08 17:13:00,
2013-02-08 12:18:00,38.8,31.9,29.65,NNW,338,1.2,1.2,76,0.00,CLR,CLR,0.00,WeatherDisplay:10.37,2013-02-08 17:18:00,
2013-02-08 12:23:00,39.0,32.1,29.64,NW,315,1.3,1.3,76,0.00,CLR,CLR,0.00,WeatherDisplay:10.37,2013-02-08 17:23:00,
2013-02-08 12:29:00,38.8,31.9,29.64,North,0,6.7,6.7,76,0.00,CLR,CLR,0.00,WeatherDisplay:10.37,2013-02-08 17:29:00,
2013-02-08 12:34:00,38.8,31.9,29.64,NW,315,0.0,0.0,76,0.00,CLR,CLR,0.00,WeatherDisplay:10.37,2013-02-08 17:34:00,
2013-02-08 12:39:00,38.8,31.9,29.65,West,270,0.0,0.0,76,0.00,CLR,CLR,0.00,WeatherDisplay:10.37,2013-02-08 17:39:00,
2013-02-08 12:44:00,39.0,32.1,29.66,WNW,292,2.3,2.3,76,0.00,CLR,CLR,0.00,WeatherDisplay:10.37,2013-02-08 17:44:00,
2013-02-08 12:49:00,39.0,32.1,29.65,WNW,292,3.5,3.5,76,0.00,CLR,CLR,0.00,WeatherDisplay:10.37,2013-02-08 17:49:00,
2013-02-08 12:55:00,38.8,31.9,29.65,West,270,4.6,4.6,76,0.00,CLR,CLR,0.00,WeatherDisplay:10.37,2013-02-08 17:55:00,
2013-02-08 13:00:00,38.5,31.2,29.64,NW,315,2.3,0.0,75,0.00,CLR,CLR,0.00,WeatherDisplay:10.37,2013-02-08 18:00:00,
2013-02-08 13:05:00,38.1,31.2,29.63,WNW,292,2.3,2.3,76,0.00,CLR,CLR,0.00,WeatherDisplay:10.37,2013-02-08 18:05:00,
2013-02-08 13:10:00,38.1,31.2,29.63,WNW,292,3.4,3.4,76,0.00,CLR,CLR,0.00,WeatherDisplay:10.37,2013-02-08 18:10:00,
2013-02-08 13:15:00,38.1,31.5,29.63,WNW,292,2.3,2.3,77,0.00,CLR,CLR,0.00,WeatherDisplay:10.37,2013-02-08 18:15:00,
2013-02-08 13:20:00,38.3,31.7,29.63,WSW,248,3.5,3.5,77,0.00,CLR,CLR,0.00,WeatherDisplay:10.37,2013-02-08 18:20:00,
2013-02-08 13:26:00,38.1,31.9,29.63,WNW,292,1.2,0.0,78,0.00,CLR,CLR,0.00,WeatherDisplay:10.37,2013-02-08 18:26:00,
2013-02-08 13:31:00,38.1,31.9,29.63,West,270,1.2,1.2,78,0.00,CLR,CLR,0.00,WeatherDisplay:10.37,2013-02-08 18:31:00,
2013-02-08 13:36:00,37.9,32.0,29.63,WNW,292,0.0,0.0,79,0.00,CLR,CLR,0.00,WeatherDisplay:10.37,2013-02-08 18:36:00,
2013-02-08 13:41:00,37.9,32.0,29.63,West,270,0.0,0.0,79,0.00,CLR,CLR,0.00,WeatherDisplay:10.37,2013-02-08 18:41:00,
2013-02-08 13:46:00,37.8,31.8,29.63,North,0,1.6,1.6,79,0.00,CLR,CLR,0.00,WeatherDisplay:10.37,2013-02-08 18:46:00,
2013-02-08 13:51:00,37.8,31.8,29.62,NNW,338,0.0,0.0,79,0.00,CLR,CLR,0.00,WeatherDisplay:10.37,2013-02-08 18:51:00,
2013-02-08 13:57:00,37.6,32.0,29.62,North,0,1.2,1.2,80,0.00,CLR,CLR,0.00,WeatherDisplay:10.37,2013-02-08 18:57:00,
2013-02-08 14:02:00,37.6,32.0,29.62,WNW,292,0.0,0.0,80,0.00,CLR,CLR,0.00,WeatherDisplay:10.37,2013-02-08 19:02:00,
2013-02-08 14:07:00,37.6,32.0,29.61,NNW,338,0.0,0.0,80,0.00,CLR,CLR,0.00,WeatherDisplay:10.37,2013-02-08 19:07:00,
2013-02-08 14:12:00,37.6,32.3,29.61,NNW,338,1.2,1.2,81,0.00,CLR,CLR,0.00,WeatherDisplay:10.37,2013-02-08 19:12:00,
2013-02-08 14:18:00,37.6,32.3,29.61,NW,315,3.5,0.0,81,0.00,CLR,CLR,0.00,WeatherDisplay:10.37,2013-02-08 19:18:00,
2013-02-08 14:23:00,37.6,32.3,29.61,NNW,338,0.0,0.0,81,0.00,CLR,CLR,0.00,WeatherDisplay:10.37,2013-02-08 19:23:00,
2013-02-08 14:28:00,37.6,32.3,29.61,NW,315,0.0,0.0,81,0.00,CLR,CLR,0.00,WeatherDisplay:10.37,2013-02-08 19:28:00,
2013-02-08 14:33:00,37.4,32.1,29.61,WNW,292,0.0,0.0,81,0.00,CLR,CLR,0.00,WeatherDisplay:10.37,2013-02-08 19:33:00,
2013-02-08 14:39:00,37.6,32.6,29.61,West,270,0.0,0.0,82,0.00,CLR,CLR,0.00,WeatherDisplay:10.37,2013-02-08 19:39:00,
2013-02-08 14:44:00,37.6,32.6,29.61,WNW,292,0.0,0.0,82,0.00,CLR,CLR,0.00,WeatherDisplay:10.37,2013-02-08 19:44:00,
2013-02-08 14:49:00,37.8,33.1,29.61,NW,315,0.0,0.0,83,0.00,CLR,CLR,0.00,WeatherDisplay:10.37,2013-02-08 19:49:00,
2013-02-08 14:54:00,37.9,33.2,29.61,NW,315,1.2,1.2,83,0.00,CLR,CLR,0.00,WeatherDisplay:10.37,2013-02-08 19:54:00,
2013-02-08 14:59:00,37.9,33.2,29.60,NNW,338,0.0,0.0,83,0.00,CLR,CLR,0.00,WeatherDisplay:10.37,2013-02-08 19:59:00,
2013-02-08 15:05:00,37.9,33.2,29.60,WNW,292,0.0,0.0,83,0.00,CLR,CLR,0.00,WeatherDisplay:10.37,2013-02-08 20:05:00,
2013-02-08 15:10:00,38.1,33.4,29.60,WNW,292,0.0,0.0,83,0.00,CLR,CLR,0.00,WeatherDisplay:10.37,2013-02-08 20:10:00,
2013-02-08 15:15:00,38.1,33.4,29.59,WNW,292,1.2,0.0,83,0.00,CLR,CLR,0.00,WeatherDisplay:10.37,2013-02-08 20:15:00,
2013-02-08 15:20:00,38.1,33.4,29.59,WNW,292,0.0,0.0,83,0.00,CLR,CLR,0.00,WeatherDisplay:10.37,2013-02-08 20:20:00,
2013-02-08 15:25:00,38.3,33.6,29.59,WNW,292,0.0,0.0,83,0.00,CLR,CLR,0.00,WeatherDisplay:10.37,2013-02-08 20:25:00,
2013-02-08 15:31:00,38.5,34.1,29.59,NW,315,3.6,3.6,84,0.00,CLR,CLR,0.00,WeatherDisplay:10.37,2013-02-08 20:31:00,
2013-02-08 15:36:00,38.5,34.1,29.59,WNW,292,1.2,1.2,84,0.00,CLR,CLR,0.00,WeatherDisplay:10.37,2013-02-08 20:36:00,
2013-02-08 15:41:00,38.5,34.1,29.59,West,270,0.0,0.0,84,0.00,CLR,CLR,0.00,WeatherDisplay:10.37,2013-02-08 20:41:00,
2013-02-08 15:46:00,38.5,34.1,29.60,West,270,0.9,0.0,84,0.00,CLR,CLR,0.00,WeatherDisplay:10.37,2013-02-08 20:46:00,
2013-02-08 15:52:00,38.5,34.1,29.60,West,270,0.0,0.0,84,0.00,CLR,CLR,0.00,WeatherDisplay:10.37,2013-02-08 20:52:00,
2013-02-08 15:57:00,38.5,34.1,29.61,West,270,1.2,1.2,84,0.00,CLR,CLR,0.00,WeatherDisplay:10.37,2013-02-08 20:57:00,
2013-02-08 16:02:00,38.5,34.1,29.61,NW,315,3.5,0.0,84,0.00,CLR,CLR,0.00,WeatherDisplay:10.37,2013-02-08 21:02:00,
2013-02-08 16:07:00,38.5,34.1,29.61,West,270,0.0,0.0,84,0.00,CLR,CLR,0.00,WeatherDisplay:10.37,2013-02-08 21:07:00,
2013-02-08 16:12:00,38.5,34.1,29.61,WSW,248,0.0,0.0,84,0.02,RA,RA,0.02,WeatherDisplay:10.37,2013-02-08 21:12:00,
2013-02-08 16:18:00,38.5,34.1,29.61,West,270,0.0,0.0,84,0.02,RA,RA,0.02,WeatherDisplay:10.37,2013-02-08 21:18:00,
2013-02-08 16:23:00,38.5,34.1,29.60,SSW,202,0.0,0.0,84,0.02,CLR,CLR,0.02,WeatherDisplay:10.37,2013-02-08 21:23:00,
2013-02-08 16:28:00,38.5,34.1,29.61,SSW,202,0.0,0.0,84,0.02,CLR,CLR,0.02,WeatherDisplay:10.37,2013-02-08 21:28:00,
2013-02-08 16:33:00,38.8,34.7,29.61,South,180,0.0,0.0,85,0.02,CLR,CLR,0.02,WeatherDisplay:10.37,2013-02-08 21:33:00,
2013-02-08 16:38:00,39.0,34.9,29.61,ESE,112,0.0,0.0,85,0.02,CLR,CLR,0.02,WeatherDisplay:10.37,2013-02-08 21:38:00,
2013-02-08 16:43:00,39.4,35.2,29.61,ESE,112,0.0,0.0,85,0.02,CLR,CLR,0.02,WeatherDisplay:10.37,2013-02-08 21:43:00,
2013-02-08 16:49:00,39.6,35.4,29.61,SE,135,0.0,0.0,85,0.02,CLR,CLR,0.02,WeatherDisplay:10.37,2013-02-08 21:49:00,
2013-02-08 16:54:00,39.6,35.4,29.61,SE,135,0.0,0.0,85,0.02,CLR,CLR,0.02,WeatherDisplay:10.37,2013-02-08 21:54:00,
2013-02-08 16:59:00,39.4,35.2,29.61,SE,135,0.0,0.0,85,0.02,CLR,CLR,0.02,WeatherDisplay:10.37,2013-02-08 21:59:00,
2013-02-08 17:04:00,39.4,35.2,29.61,SSW,202,0.0,0.0,85,0.02,CLR,CLR,0.02,WeatherDisplay:10.37,2013-02-08 22:04:00,
2013-02-08 17:09:00,39.4,35.2,29.61,SSW,202,0.0,0.0,85,0.02,CLR,CLR,0.02,WeatherDisplay:10.37,2013-02-08 22:09:00,
2013-02-08 17:15:00,39.4,35.2,29.62,South,180,0.0,0.0,85,0.00,CLR,CLR,0.02,WeatherDisplay:10.37,2013-02-08 22:15:00,
2013-02-08 17:20:00,39.4,35.2,29.62,SSE,158,8.1,8.1,85,0.00,CLR,CLR,0.02,WeatherDisplay:10.37,2013-02-08 22:20:00,
2013-02-08 17:25:00,39.4,35.2,29.62,WSW,248,9.4,9.4,85,0.00,CLR,CLR,0.02,WeatherDisplay:10.37,2013-02-08 22:25:00,
2013-02-08 17:30:00,39.4,34.9,29.62,WSW,248,13.2,13.2,84,0.00,CLR,CLR,0.02,WeatherDisplay:10.37,2013-02-08 22:30:00,
2013-02-08 17:36:00,39.7,35.3,29.62,SW,225,6.9,6.9,84,0.00,CLR,CLR,0.02,WeatherDisplay:10.37,2013-02-08 22:36:00,
2013-02-08 17:41:00,39.9,35.2,29.62,WSW,248,10.3,10.3,83,0.00,CLR,CLR,0.02,WeatherDisplay:10.37,2013-02-08 22:41:00,
2013-02-08 17:46:00,40.3,35.2,29.62,West,270,11.5,11.5,82,0.00,CLR,CLR,0.02,WeatherDisplay:10.37,2013-02-08 22:46:00,
2013-02-08 17:51:00,40.3,34.9,29.62,NW,315,5.6,5.6,81,0.00,CLR,CLR,0.02,WeatherDisplay:10.37,2013-02-08 22:51:00,
2013-02-08 17:56:00,40.6,34.6,29.62,SSW,202,10.4,10.4,79,0.00,CLR,CLR,0.02,WeatherDisplay:10.37,2013-02-08 22:56:00,
2013-02-08 18:01:00,40.8,34.2,29.62,SW,225,8.9,8.9,77,0.00,CLR,CLR,0.02,WeatherDisplay:10.37,2013-02-08 23:01:00,
2013-02-08 18:06:00,40.6,33.3,29.63,SSW,202,12.7,12.7,75,0.00,CLR,CLR,0.02,WeatherDisplay:10.37,2013-02-08 23:06:00,
2013-02-08 18:11:00,40.8,33.2,29.63,SSW,202,13.8,13.8,74,0.00,CLR,CLR,0.02,WeatherDisplay:10.37,2013-02-08 23:11:00,
2013-02-08 18:17:00,40.6,32.7,29.63,SSW,202,7.8,7.8,73,0.00,CLR,CLR,0.02,WeatherDisplay:10.37,2013-02-08 23:17:00,
2013-02-08 18:22:00,40.6,32.3,29.63,NNE,22,12.7,12.7,72,0.00,CLR,CLR,0.02,WeatherDisplay:10.37,2013-02-08 23:22:00,
2013-02-08 18:27:00,40.5,32.1,29.64,SSW,202,11.5,11.5,72,0.00,CLR,CLR,0.02,WeatherDisplay:10.37,2013-02-08 23:27:00,
2013-02-08 18:32:00,40.5,31.8,29.64,WSW,248,8.3,8.3,71,0.00,CLR,CLR,0.02,WeatherDisplay:10.37,2013-02-08 23:32:00,
2013-02-08 18:37:00,40.3,31.3,29.64,WSW,248,9.2,9.2,70,0.00,CLR,CLR,0.02,WeatherDisplay:10.37,2013-02-08 23:37:00,
2013-02-08 18:42:00,40.1,31.1,29.64,SW,225,5.8,5.8,70,0.00,CLR,CLR,0.02,WeatherDisplay:10.37,2013-02-08 23:42:00,
2013-02-08 18:47:00,39.9,30.9,29.64,SW,225,8.1,8.1,70,0.00,CLR,CLR,0.02,WeatherDisplay:10.37,2013-02-08 23:47:00,
2013-02-08 18:52:00,39.7,30.4,29.64,SSW,202,2.3,2.3,69,0.00,CLR,CLR,0.02,WeatherDisplay:10.37,2013-02-08 23:52:00,
2013-02-08 18:57:00,39.6,29.9,29.65,NW,315,5.8,5.8,68,0.00,CLR,CLR,0.02,WeatherDisplay:10.37,2013-02-08 23:57:00,
2013-02-08 19:03:00,39.4,29.3,29.65,South,180,12.7,12.7,67,0.00,CLR,CLR,0.02,WeatherDisplay:10.37,2013-02-09 00:03:00,
2013-02-08 19:08:00,39.4,29.3,29.65,SSW,202,11.5,11.5,67,0.00,CLR,CLR,0.02,WeatherDisplay:10.37,2013-02-09 00:08:00,
2013-02-08 19:13:00,39.2,29.2,29.66,SSW,202,9.2,9.2,67,0.00,CLR,CLR,0.02,WeatherDisplay:10.37,2013-02-09 00:13:00,
2013-02-08 19:18:00,39.0,29.0,29.66,SSW,202,4.2,4.2,67,0.00,CLR,CLR,0.02,WeatherDisplay:10.37,2013-02-09 00:18:00,
2013-02-08 19:23:00,38.8,28.8,29.66,WSW,248,9.2,9.2,67,0.00,CLR,CLR,0.02,WeatherDisplay:10.37,2013-02-09 00:23:00,
2013-02-08 19:28:00,38.8,28.8,29.67,WNW,292,3.5,3.5,67,0.00,CLR,CLR,0.02,WeatherDisplay:10.37,2013-02-09 00:28:00,
2013-02-08 19:34:00,38.5,28.5,29.67,WSW,248,19.6,19.6,67,0.00,CLR,CLR,0.02,WeatherDisplay:10.37,2013-02-09 00:34:00,
2013-02-08 19:39:00,38.5,28.5,29.67,WSW,248,7.4,7.4,67,0.00,CLR,CLR,0.02,WeatherDisplay:10.37,2013-02-09 00:39:00,
2013-02-08 19:44:00,38.1,28.1,29.67,SW,225,9.2,9.2,67,0.00,CLR,CLR,0.02,WeatherDisplay:10.37,2013-02-09 00:44:00,
2013-02-08 19:49:00,37.9,28.0,29.67,WSW,248,17.3,17.3,67,0.00,CLR,CLR,0.02,WeatherDisplay:10.37,2013-02-09 00:49:00,
2013-02-08 19:54:00,37.9,27.6,29.67,WSW,248,15.0,15.0,66,0.00,CLR,CLR,0.02,WeatherDisplay:10.37,2013-02-09 00:54:00,
2013-02-08 19:59:00,37.6,27.2,29.67,SSW,202,17.3,17.3,66,0.00,CLR,CLR,0.02,WeatherDisplay:10.37,2013-02-09 00:59:00,
2013-02-08 20:05:00,37.2,26.9,29.68,SW,225,10.4,10.4,66,0.00,CLR,CLR,0.02,WeatherDisplay:10.37,2013-02-09 01:05:00,
2013-02-08 20:10:00,36.9,26.6,29.68,WSW,248,13.0,13.0,66,0.00,CLR,CLR,0.02,WeatherDisplay:10.37,2013-02-09 01:10:00,
2013-02-08 20:15:00,36.7,26.0,29.68,SW,225,15.0,15.0,65,0.00,CLR,CLR,0.02,WeatherDisplay:10.37,2013-02-09 01:15:00,
2013-02-08 20:21:00,36.3,25.7,29.69,WNW,292,21.9,21.9,65,0.00,CLR,CLR,0.02,WeatherDisplay:10.37,2013-02-09 01:21:00,
2013-02-08 20:26:00,36.3,25.7,29.70,WSW,248,16.1,16.1,65,0.00,CLR,CLR,0.02,WeatherDisplay:10.37,2013-02-09 01:26:00,
2013-02-08 20:31:00,36.1,25.5,29.69,SW,225,18.4,18.4,65,0.00,CLR,CLR,0.02,WeatherDisplay:10.37,2013-02-09 01:31:00,
2013-02-08 20:36:00,36.1,25.5,29.70,West,270,13.8,13.8,65,0.00,CLR,CLR,0.02,WeatherDisplay:10.37,2013-02-09 01:36:00,
2013-02-08 20:41:00,36.0,25.3,29.70,WSW,248,5.8,5.8,65,0.00,CLR,CLR,0.02,WeatherDisplay:10.37,2013-02-09 01:41:00,
2013-02-08 20:46:00,36.0,25.3,29.70,NW,315,12.7,12.7,65,0.00,CLR,CLR,0.02,WeatherDisplay:10.37,2013-02-09 01:46:00,
2013-02-08 20:51:00,35.8,24.8,29.71,SSW,202,27.6,27.6,64,0.00,CLR,CLR,0.02,WeatherDisplay:10.37,2013-02-09 01:51:00,
2013-02-08 20:56:00,35.8,24.8,29.71,SW,225,8.1,8.1,64,0.00,CLR,CLR,0.02,WeatherDisplay:10.37,2013-02-09 01:56:00,
2013-02-08 21:01:00,35.8,24.8,29.71,SW,225,17.7,17.7,64,0.00,CLR,CLR,0.02,WeatherDisplay:10.37,2013-02-09 02:01:00,
2013-02-08 21:07:00,35.4,24.8,29.71,SW,225,5.8,5.8,65,0.00,CLR,CLR,0.02,WeatherDisplay:10.37,2013-02-09 02:07:00,
2013-02-08 21:12:00,35.4,24.4,29.72,SSW,202,8.1,8.1,64,0.00,CLR,CLR,0.02,WeatherDisplay:10.37,2013-02-09 02:12:00,
2013-02-08 21:17:00,35.4,24.8,29.72,WSW,248,9.6,9.6,65,0.00,CLR,CLR,0.02,WeatherDisplay:10.37,2013-02-09 02:17:00,
2013-02-08 21:22:00,35.4,24.8,29.72,SW,225,9.2,9.2,65,0.00,CLR,CLR,0.02,WeatherDisplay:10.37,2013-02-09 02:22:00,
2013-02-08 21:27:00,35.4,24.8,29.72,SSW,202,10.4,10.4,65,0.00,CLR,CLR,0.02,WeatherDisplay:10.37,2013-02-09 02:27:00,
2013-02-08 21:33:00,35.4,24.8,29.72,SSE,158,18.5,18.5,65,0.00,CLR,CLR,0.02,WeatherDisplay:10.37,2013-02-09 02:33:00,
2013-02-08 21:38:00,35.2,24.6,29.72,SW,225,13.8,13.8,65,0.00,CLR,CLR,0.02,WeatherDisplay:10.37,2013-02-09 02:38:00,
2013-02-08 21:43:00,34.9,24.3,29.72,SE,135,17.3,17.3,65,0.00,CLR,CLR,0.02,WeatherDisplay:10.37,2013-02-09 02:43:00,
2013-02-08 21:48:00,34.7,24.5,29.72,SSW,202,9.2,9.2,66,0.00,CLR,CLR,0.02,WeatherDisplay:10.37,2013-02-09 02:48:00,
2013-02-08 21:53:00,34.3,24.2,29.73,WSW,248,17.3,17.3,66,0.00,CLR,CLR,0.02,WeatherDisplay:10.37,2013-02-09 02:53:00,
2013-02-08 21:59:00,34.3,23.8,29.73,SW,225,15.2,15.2,65,0.00,CLR,CLR,0.02,WeatherDisplay:10.37,2013-02-09 02:59:00,
2013-02-08 22:04:00,34.3,23.8,29.73,NNE,22,12.1,12.1,65,0.00,CLR,CLR,0.02,WeatherDisplay:10.37,2013-02-09 03:04:00,
2013-02-08 22:09:00,34.3,23.8,29.73,SW,225,12.1,12.1,65,0.00,CLR,CLR,0.02,WeatherDisplay:10.37,2013-02-09 03:09:00,
2013-02-08 22:15:00,34.2,23.2,29.73,SW,225,23.0,23.0,64,0.00,CLR,CLR,0.02,WeatherDisplay:10.37,2013-02-09 03:15:00,
2013-02-08 22:20:00,34.2,23.2,29.73,NW,315,16.1,16.1,64,0.00,CLR,CLR,0.02,WeatherDisplay:10.37,2013-02-09 03:20:00,
2013-02-08 22:25:00,34.2,23.2,29.74,WNW,292,5.8,5.8,64,0.00,CLR,CLR,0.02,WeatherDisplay:10.37,2013-02-09 03:25:00,
2013-02-08 22:30:00,34.2,23.2,29.74,SW,225,11.5,11.5,64,0.00,CLR,CLR,0.02,WeatherDisplay:10.37,2013-02-09 03:30:00,
2013-02-08 22:36:00,34.2,23.2,29.75,West,270,8.1,8.1,64,0.00,CLR,CLR,0.02,WeatherDisplay:10.37,2013-02-09 03:36:00,
2013-02-08 22:41:00,34.2,23.2,29.75,SW,225,11.5,11.5,64,0.00,CLR,CLR,0.02,WeatherDisplay:10.37,2013-02-09 03:41:00,
2013-02-08 22:46:00,34.2,23.2,29.75,SW,225,12.3,12.3,64,0.00,CLR,CLR,0.02,WeatherDisplay:10.37,2013-02-09 03:46:00,
2013-02-08 22:51:00,34.3,23.0,29.76,WSW,248,9.2,9.2,63,0.00,CLR,CLR,0.02,WeatherDisplay:10.37,2013-02-09 03:51:00,
2013-02-08 22:56:00,34.3,23.0,29.76,WSW,248,15.0,15.0,63,0.00,CLR,CLR,0.02,WeatherDisplay:10.37,2013-02-09 03:56:00,
2013-02-08 23:01:00,34.3,23.0,29.76,NW,315,8.5,8.5,63,0.00,CLR,CLR,0.02,WeatherDisplay:10.37,2013-02-09 04:01:00,
2013-02-08 23:06:00,34.3,23.0,29.76,SW,225,10.4,10.4,63,0.00,CLR,CLR,0.02,WeatherDisplay:10.37,2013-02-09 04:06:00,
2013-02-08 23:11:00,34.3,23.4,29.76,SSW,202,13.8,13.8,64,0.00,CLR,CLR,0.02,WeatherDisplay:10.37,2013-02-09 04:11:00,
2013-02-08 23:17:00,34.3,23.0,29.76,West,270,6.9,6.9,63,0.00,CLR,CLR,0.02,WeatherDisplay:10.37,2013-02-09 04:17:00,
2013-02-08 23:22:00,34.3,23.0,29.77,West,270,6.9,6.9,63,0.00,CLR,CLR,0.02,WeatherDisplay:10.37,2013-02-09 04:22:00,
2013-02-08 23:27:00,34.3,23.0,29.76,SW,225,15.0,15.0,63,0.00,CLR,CLR,0.02,WeatherDisplay:10.37,2013-02-09 04:27:00,
2013-02-08 23:32:00,34.3,23.0,29.76,WNW,292,9.2,9.2,63,0.00,CLR,CLR,0.02,WeatherDisplay:10.37,2013-02-09 04:32:00,
2013-02-08 23:37:00,34.2,22.9,29.76,WSW,248,9.8,9.8,63,0.00,CLR,CLR,0.02,WeatherDisplay:10.37,2013-02-09 04:37:00,
2013-02-08 23:43:00,34.3,23.0,29.77,North,0,2.3,4.4,63,0.00,CLR,CLR,0.02,WeatherDisplay:10.37,2013-02-09 04:43:00,
2013-02-08 23:48:00,34.2,22.9,29.77,SW,225,11.5,11.5,63,0.00,CLR,CLR,0.02,WeatherDisplay:10.37,2013-02-09 04:48:00,
2013-02-08 23:53:00,34.0,22.7,29.77,WSW,248,9.2,9.2,63,0.00,CLR,CLR,0.02,WeatherDisplay:10.37,2013-02-09 04:53:00,
2013-02-08 23:58:00,34.0,23.1,29.78,West,270,8.1,8.1,64,0.00,CLR,CLR,0.02,WeatherDisplay:10.37,2013-02-09 04:58:00,